Time;durP1;ratioP1;P1;durP2;ratioP2;P2;SDS_P1;SDS_P2;PMS_P1;PMS_P2;Temp;Humidity;BMP_temperature;BMP_pressure;BME280_temperature;BME280_humidity;BME280_pressure;Samples;Min_cycle;Max_cycle;Signal;HPM_P1;HPM_P2
2021/03/21 00:02:15;;;;;;;4.87;4.37;;;4.70;31.10;;;;;;10448514;28;20235;-71
2021/03/21 00:07:17;;;;;;;4.30;3.90;;;4.70;31.00;;;;;;10451149;28;20287;-71
2021/03/21 00:12:19;;;;;;;4.90;4.30;;;4.70;31.20;;;;;;10439364;28;20237;-71
2021/03/21 00:17:23;;;;;;;4.80;4.17;;;4.70;31.10;;;;;;10444956;28;20596;-71
2021/03/21 00:22:25;;;;;;;4.87;4.10;;;4.60;31.10;;;;;;10447163;28;20217;-71
2021/03/21 00:27:27;;;;;;;4.83;4.33;;;4.60;31.40;;;;;;10450684;28;20225;-70
2021/03/21 00:32:30;;;;;;;4.77;4.30;;;4.50;31.40;;;;;;10444230;28;20240;-71
2021/03/21 00:37:33;;;;;;;4.50;4.10;;;4.50;31.50;;;;;;10449704;28;20530;-71
2021/03/21 00:42:35;;;;;;;4.40;4.00;;;4.50;31.50;;;;;;10446266;28;20245;-71
2021/03/21 00:47:38;;;;;;;5.20;4.33;;;4.50;31.50;;;;;;10447613;28;20243;-71
2021/03/21 00:52:41;;;;;;;4.90;4.40;;;4.50;31.60;;;;;;10449106;28;20283;-71
2021/03/21 00:57:44;;;;;;;4.63;4.23;;;4.40;31.70;;;;;;10446968;28;20225;-71
2021/03/21 01:02:47;;;;;;;5.23;4.47;;;4.50;31.80;;;;;;10445413;28;20225;-71
2021/03/21 01:07:51;;;;;;;5.17;4.60;;;4.40;31.70;;;;;;10444522;28;20282;-72
2021/03/21 01:12:54;;;;;;;5.27;4.77;;;4.40;31.70;;;;;;10445023;28;20304;-71
2021/03/21 01:17:58;;;;;;;5.30;4.83;;;4.30;31.60;;;;;;10442454;28;20228;-71
2021/03/21 01:23:01;;;;;;;5.40;4.30;;;4.40;31.90;;;;;;10442624;28;20239;-71
2021/03/21 01:28:03;;;;;;;4.73;4.30;;;4.30;31.90;;;;;;10448150;28;20303;-71
2021/03/21 01:33:06;;;;;;;4.63;4.23;;;4.30;31.90;;;;;;10446807;28;20233;-71
2021/03/21 01:38:08;;;;;;;4.70;4.20;;;4.30;31.90;;;;;;10456852;28;20228;-71
2021/03/21 01:43:14;;;;;;;4.60;4.20;;;4.30;31.90;;;;;;10451896;28;20225;-71
2021/03/21 01:48:28;;;;;;;5.77;4.13;;;4.30;31.90;;;;;;10449598;28;20229;-71
2021/03/21 01:53:33;;;;;;;4.47;4.03;;;4.30;31.80;;;;;;10451856;28;20225;-71
2021/03/21 01:58:36;;;;;;;4.63;4.23;;;4.20;31.90;;;;;;10454127;28;20224;-72
2021/03/21 02:03:39;;;;;;;4.37;3.93;;;4.20;32.00;;;;;;10455091;28;20593;-72
2021/03/21 02:08:49;;;;;;;4.47;3.70;;;4.20;31.90;;;;;;10453113;28;20229;-71
2021/03/21 02:13:59;;;;;;;4.90;4.50;;;4.20;31.70;;;;;;10445900;28;20335;-71
2021/03/21 02:19:16;;;;;;;5.40;4.50;;;4.20;31.80;;;;;;10450837;28;20735;-71
2021/03/21 02:24:59;;;;;;;6.17;4.00;;;4.20;31.80;;;;;;10445465;28;20224;-71
2021/03/21 02:30:08;;;;;;;4.17;3.60;;;4.30;31.70;;;;;;10450650;28;20234;-71
2021/03/21 02:35:18;;;;;;;4.23;3.80;;;4.30;31.80;;;;;;10452966;28;20229;-71
2021/03/21 02:40:28;;;;;;;4.87;3.80;;;4.30;31.70;;;;;;10453252;28;20232;-71
2021/03/21 02:45:33;;;;;;;4.60;4.13;;;4.30;31.80;;;;;;10446370;28;20739;-71
2021/03/21 02:50:41;;;;;;;4.37;3.97;;;4.30;31.80;;;;;;10450964;28;20233;-71
2021/03/21 02:55:48;;;;;;;4.33;4.00;;;4.30;31.90;;;;;;10450104;28;20258;-71
2021/03/21 03:00:56;;;;;;;3.97;3.53;;;4.30;31.90;;;;;;10450391;28;20225;-71
2021/03/21 03:06:02;;;;;;;4.13;3.70;;;4.50;32.00;;;;;;10451742;28;20241;-72
2021/03/21 03:11:11;;;;;;;4.10;3.70;;;4.40;32.00;;;;;;10449650;28;20229;-71
2021/03/21 03:16:23;;;;;;;3.80;3.50;;;4.40;31.90;;;;;;10440691;28;20728;-71
2021/03/21 03:21:32;;;;;;;4.03;3.70;;;4.40;31.80;;;;;;10449780;28;20222;-71
2021/03/21 03:26:43;;;;;;;4.90;3.80;;;4.40;31.90;;;;;;10451094;28;20241;-71
2021/03/21 03:32:03;;;;;;;4.40;3.60;;;4.40;31.90;;;;;;10447769;28;20614;-71
2021/03/21 03:37:06;;;;;;;4.80;3.50;;;4.40;32.20;;;;;;10446988;28;20224;-71
2021/03/21 03:42:18;;;;;;;3.83;3.53;;;4.40;32.10;;;;;;10451437;28;20239;-71
2021/03/21 03:47:27;;;;;;;4.93;3.60;;;4.40;31.90;;;;;;10444357;28;20264;-71
2021/03/21 03:52:48;;;;;;;3.57;3.27;;;4.40;31.80;;;;;;10446036;28;20237;-71
2021/03/21 03:57:58;;;;;;;3.97;3.57;;;4.40;31.90;;;;;;10450016;28;20233;-71
2021/03/21 04:03:15;;;;;;;3.73;3.43;;;4.40;31.90;;;;;;10448721;28;20228;-71
2021/03/21 04:08:29;;;;;;;3.70;3.40;;;4.40;31.70;;;;;;10441072;28;20274;-71
2021/03/21 04:13:36;;;;;;;5.40;3.83;;;4.50;31.70;;;;;;10443746;28;20237;-71
2021/03/21 04:18:46;;;;;;;4.10;3.70;;;4.50;31.90;;;;;;10448589;28;20232;-71
2021/03/21 04:23:53;;;;;;;4.07;3.67;;;4.50;31.90;;;;;;10447232;28;20234;-71
2021/03/21 04:29:01;;;;;;;4.20;3.77;;;4.50;31.90;;;;;;10447305;28;20224;-71
2021/03/21 04:34:07;;;;;;;3.87;3.57;;;4.40;31.90;;;;;;10447642;28;20308;-71
2021/03/21 04:39:12;;;;;;;4.30;3.40;;;4.40;32.10;;;;;;10448505;28;20225;-71
2021/03/21 04:44:18;;;;;;;3.67;3.37;;;4.40;31.90;;;;;;10443994;28;20224;-71
2021/03/21 04:49:22;;;;;;;3.73;3.43;;;4.50;32.10;;;;;;10447439;28;20600;-71
2021/03/21 04:54:28;;;;;;;5.57;4.00;;;4.40;31.90;;;;;;10449087;28;20711;-71
2021/03/21 04:59:34;;;;;;;3.73;3.23;;;4.50;32.00;;;;;;10444621;28;20225;-71
2021/03/21 05:04:41;;;;;;;5.03;3.43;;;4.40;31.90;;;;;;10432388;28;20224;-70
2021/03/21 05:09:46;;;;;;;4.27;3.73;;;4.40;31.90;;;;;;10441017;28;20228;-71
2021/03/21 05:14:52;;;;;;;3.80;3.40;;;4.40;31.90;;;;;;10445275;28;20221;-71
2021/03/21 05:20:06;;;;;;;3.63;3.33;;;4.40;32.00;;;;;;10441313;28;20225;-71
2021/03/21 05:25:17;;;;;;;7.20;6.43;;;4.50;31.90;;;;;;10445160;28;20217;-71
2021/03/21 05:30:24;;;;;;;4.43;4.03;;;4.50;32.00;;;;;;10442843;28;20231;-71
2021/03/21 05:35:30;;;;;;;3.80;3.50;;;4.50;32.10;;;;;;10445319;28;20220;-71
2021/03/21 05:41:17;;;;;;;4.70;4.07;;;4.40;31.90;;;;;;10443798;28;20235;-72
2021/03/21 05:46:42;;;;;;;4.10;3.70;;;4.40;31.80;;;;;;10445000;28;20309;-71
2021/03/21 05:52:13;;;;;;;4.00;3.70;;;4.40;31.70;;;;;;10439730;28;20612;-71
2021/03/21 05:57:47;;;;;;;4.07;3.67;;;4.40;31.90;;;;;;10439974;28;20630;-70
2021/03/21 06:03:11;;;;;;;3.80;3.47;;;4.40;31.90;;;;;;10419705;28;20221;-70
2021/03/21 06:08:46;;;;;;;3.97;3.50;;;4.40;32.20;;;;;;10443971;28;20253;-70
2021/03/21 06:14:09;;;;;;;4.00;3.47;;;4.40;31.70;;;;;;10443021;28;20693;-70
2021/03/21 06:19:39;;;;;;;3.87;3.57;;;4.40;31.70;;;;;;10447804;28;20606;-70
2021/03/21 06:25:15;;;;;;;4.00;3.60;;;4.50;31.80;;;;;;10448155;28;20233;-70
2021/03/21 06:30:37;;;;;;;4.30;3.90;;;4.50;31.70;;;;;;10448050;28;20229;-70
2021/03/21 06:36:02;;;;;;;4.07;3.67;;;4.60;31.70;;;;;;10446098;28;20222;-70
2021/03/21 06:41:29;;;;;;;5.43;4.93;;;4.60;31.70;;;;;;10427829;28;20256;-70
2021/03/21 06:47:05;;;;;;;3.97;3.60;;;4.60;31.40;;;;;;10408491;28;20240;-70
2021/03/21 06:52:16;;;;;;;4.00;3.60;;;4.70;31.50;;;;;;10370961;28;20223;-70
2021/03/21 06:57:54;;;;;;;4.93;3.90;;;4.80;31.70;;;;;;10406157;28;20320;-70
2021/03/21 07:03:40;;;;;;;4.57;4.10;;;4.80;31.60;;;;;;10431074;28;20596;-70
2021/03/21 07:09:05;;;;;;;4.30;3.90;;;4.80;31.60;;;;;;10406460;28;20231;-69
2021/03/21 07:14:59;;;;;;;4.37;3.97;;;4.90;31.50;;;;;;10405532;28;20300;-70
2021/03/21 07:20:48;;;;;;;4.43;3.53;;;4.90;31.30;;;;;;10233525;28;20230;-71
2021/03/21 07:26:15;;;;;;;4.27;3.87;;;5.00;31.40;;;;;;10346392;28;20224;-72
2021/03/21 07:31:42;;;;;;;5.10;4.60;;;5.00;31.20;;;;;;10392889;28;20236;-71
2021/03/21 07:36:55;;;;;;;4.43;4.03;;;5.00;31.40;;;;;;10410629;28;20237;-71
2021/03/21 07:42:19;;;;;;;4.30;3.90;;;5.00;32.20;;;;;;10400213;28;20749;-71
2021/03/21 07:47:45;;;;;;;4.47;4.07;;;5.00;31.20;;;;;;10405281;28;20588;-69
2021/03/21 07:53:17;;;;;;;4.20;3.80;;;5.10;31.60;;;;;;10406450;28;20249;-68
2021/03/21 07:58:28;;;;;;;5.00;4.50;;;5.00;31.40;;;;;;10395406;28;20236;-66
2021/03/21 08:03:46;;;;;;;3.90;3.40;;;5.00;31.70;;;;;;10421493;28;20635;-66
2021/03/21 08:08:57;;;;;;;5.37;4.57;;;5.10;31.50;;;;;;10405113;28;20372;-66
2021/03/21 08:14:11;;;;;;;5.30;4.80;;;5.10;31.50;;;;;;10402536;28;20721;-66
2021/03/21 08:19:20;;;;;;;5.27;4.77;;;5.10;31.50;;;;;;10394397;28;20232;-66
2021/03/21 08:24:27;;;;;;;5.93;5.30;;;5.10;31.60;;;;;;10395931;28;20225;-66
2021/03/21 08:29:56;;;;;;;5.63;4.50;;;5.20;31.50;;;;;;10393136;28;20233;-66
2021/03/21 08:35:15;;;;;;;4.97;4.47;;;5.20;31.20;;;;;;10406883;28;20597;-66
2021/03/21 08:40:31;;;;;;;4.17;3.77;;;5.20;31.40;;;;;;10397627;28;20240;-65
2021/03/21 08:45:38;;;;;;;4.87;4.37;;;5.20;31.70;;;;;;10403810;28;20225;-66
2021/03/21 08:50:43;;;;;;;3.93;3.63;;;5.20;31.80;;;;;;10393991;28;20230;-66
2021/03/21 08:55:46;;;;;;;4.20;3.83;;;5.30;31.70;;;;;;10404836;28;20232;-66
2021/03/21 09:00:48;;;;;;;4.50;4.07;;;5.30;31.80;;;;;;10404172;28;20233;-67
2021/03/21 09:05:58;;;;;;;4.57;4.17;;;5.30;31.90;;;;;;10444629;28;20305;-67
2021/03/21 09:11:13;;;;;;;5.33;4.70;;;5.30;31.90;;;;;;10373571;28;20642;-68
2021/03/21 09:16:15;;;;;;;7.87;5.07;;;5.30;31.90;;;;;;10394779;28;20278;-69
2021/03/21 09:21:24;;;;;;;5.30;4.67;;;5.40;32.00;;;;;;10432639;28;20253;-70
2021/03/21 09:26:43;;;;;;;4.77;4.37;;;5.40;31.90;;;;;;10395860;28;20229;-68
2021/03/21 09:31:47;;;;;;;5.20;4.23;;;5.50;31.90;;;;;;10395495;28;20225;-68
2021/03/21 09:36:56;;;;;;;5.03;4.53;;;5.50;32.00;;;;;;10425748;28;20831;-69
2021/03/21 09:42:02;;;;;;;7.80;5.43;;;5.60;32.00;;;;;;10398077;28;20267;-69
2021/03/21 09:47:21;;;;;;;9.33;7.70;;;5.60;32.00;;;;;;10401217;28;20225;-69
2021/03/21 09:52:39;;;;;;;4.63;4.23;;;5.60;31.80;;;;;;10396611;28;20831;-69
2021/03/21 09:58:30;;;;;;;9.67;8.07;;;5.60;31.90;;;;;;10409782;28;20235;-69
2021/03/21 10:03:35;;;;;;;6.03;5.33;;;5.60;31.80;;;;;;10411331;28;20222;-69
2021/03/21 10:09:00;;;;;;;6.93;5.70;;;5.70;32.10;;;;;;10412307;28;20229;-69
2021/03/21 10:14:57;;;;;;;7.07;5.63;;;5.70;31.90;;;;;;10399956;28;20719;-69
2021/03/21 10:20:00;;;;;;;6.50;5.80;;;5.70;31.90;;;;;;10330460;28;20644;-69
2021/03/21 10:25:40;;;;;;;8.33;4.77;;;5.80;32.60;;;;;;10453038;28;20820;-71
2021/03/21 10:31:27;;;;;;;5.77;5.10;;;5.70;32.70;;;;;;10446497;28;20228;-70
2021/03/21 10:36:44;;;;;;;5.07;4.57;;;5.70;32.70;;;;;;10450871;28;20225;-70
2021/03/21 10:42:00;;;;;;;5.43;4.70;;;5.60;33.20;;;;;;10450585;28;20235;-70
2021/03/21 10:47:05;;;;;;;5.63;4.80;;;5.50;33.50;;;;;;10448125;28;20312;-71
2021/03/21 10:52:22;;;;;;;5.03;4.63;;;5.50;33.40;;;;;;10449720;28;20236;-71
2021/03/21 10:57:35;;;;;;;5.03;4.53;;;5.70;34.30;;;;;;10441815;28;20233;-70
2021/03/21 11:02:39;;;;;;;7.07;5.40;;;5.50;34.50;;;;;;10447842;28;20228;-70
2021/03/21 11:08:08;;;;;;;6.43;5.60;;;5.50;34.30;;;;;;10450626;28;20696;-70
2021/03/21 11:13:14;;;;;;;7.20;5.50;;;5.60;35.10;;;;;;10441113;28;20231;-69
2021/03/21 11:18:24;;;;;;;9.10;5.90;;;5.60;35.20;;;;;;10441902;28;20229;-71
2021/03/21 11:23:27;;;;;;;6.93;5.77;;;5.60;34.70;;;;;;10438585;28;20684;-69
2021/03/21 11:28:36;;;;;;;5.83;5.23;;;5.70;34.50;;;;;;10442410;28;20746;-70
2021/03/21 11:33:42;;;;;;;5.83;5.20;;;5.70;34.70;;;;;;10442898;28;20761;-70
2021/03/21 11:38:46;;;;;;;7.47;5.60;;;5.60;34.80;;;;;;10440390;28;20229;-71
2021/03/21 11:43:48;;;;;;;7.60;6.03;;;5.60;34.90;;;;;;10440627;28;20225;-72
2021/03/21 11:48:52;;;;;;;6.80;5.43;;;5.70;35.00;;;;;;10443970;28;20716;-71
2021/03/21 11:53:55;;;;;;;6.43;5.57;;;5.80;35.00;;;;;;10444140;28;20588;-71
2021/03/21 11:59:00;;;;;;;7.47;6.37;;;5.90;35.10;;;;;;10446389;28;20221;-71
2021/03/21 12:04:06;;;;;;;6.83;5.50;;;6.00;35.30;;;;;;10450676;28;20249;-71
2021/03/21 12:09:21;;;;;;;6.40;5.57;;;6.10;34.90;;;;;;10447964;28;20229;-70
2021/03/21 12:14:44;;;;;;;7.43;5.70;;;6.20;34.90;;;;;;10443681;28;20689;-71
2021/03/21 12:19:47;;;;;;;7.00;6.10;;;6.30;34.70;;;;;;10442674;28;20324;-70
2021/03/21 12:24:54;;;;;;;6.43;5.30;;;6.30;34.50;;;;;;10446625;28;20223;-70
2021/03/21 12:30:03;;;;;;;6.27;5.67;;;6.40;34.40;;;;;;10445222;28;20243;-71
2021/03/21 12:35:13;;;;;;;7.20;6.50;;;6.40;34.30;;;;;;10446229;28;20221;-70
2021/03/21 12:40:18;;;;;;;7.57;6.73;;;6.40;34.20;;;;;;10445952;28;20581;-70
2021/03/21 12:45:23;;;;;;;8.87;7.60;;;6.40;34.30;;;;;;10443867;28;20318;-70
2021/03/21 12:50:47;;;;;;;7.90;7.10;;;6.40;34.40;;;;;;10443890;28;20233;-70
2021/03/21 12:55:52;;;;;;;10.53;7.27;;;6.40;34.40;;;;;;10447376;28;20251;-70
2021/03/21 13:00:55;;;;;;;8.07;7.27;;;6.50;34.40;;;;;;10445014;28;20710;-70
2021/03/21 13:06:01;;;;;;;7.70;7.00;;;6.50;34.60;;;;;;10448119;28;20225;-70
2021/03/21 13:11:05;;;;;;;8.50;7.70;;;6.50;34.80;;;;;;10444179;28;20225;-70
2021/03/21 13:16:09;;;;;;;8.67;7.77;;;6.50;34.80;;;;;;10445506;28;20225;-70
2021/03/21 13:21:13;;;;;;;8.90;7.60;;;6.60;35.60;;;;;;10443523;28;20263;-70
2021/03/21 13:26:16;;;;;;;9.43;8.13;;;6.70;34.90;;;;;;10447504;28;20225;-70
2021/03/21 13:31:18;;;;;;;10.03;8.73;;;6.80;34.80;;;;;;10444248;28;20237;-70
2021/03/21 13:36:21;;;;;;;8.93;8.03;;;6.90;34.90;;;;;;10446722;28;20310;-70
2021/03/21 13:41:23;;;;;;;9.47;7.60;;;6.90;34.80;;;;;;10443333;28;20221;-70
2021/03/21 13:46:26;;;;;;;8.73;7.80;;;6.90;34.80;;;;;;10444039;28;20229;-70
2021/03/21 13:51:30;;;;;;;10.53;9.43;;;6.90;34.80;;;;;;10445591;28;20697;-70
2021/03/21 13:56:32;;;;;;;10.53;9.43;;;7.00;34.80;;;;;;10438869;28;20235;-70
2021/03/21 14:01:34;;;;;;;11.53;10.43;;;7.00;34.80;;;;;;10445734;28;20236;-70
2021/03/21 14:06:38;;;;;;;13.13;11.53;;;7.00;35.00;;;;;;10442520;28;20480;-70
2021/03/21 14:11:40;;;;;;;12.40;11.10;;;7.00;35.10;;;;;;10445621;28;20802;-70
2021/03/21 14:16:43;;;;;;;13.10;11.80;;;7.00;35.30;;;;;;10444272;28;20312;-70
2021/03/21 14:21:46;;;;;;;12.33;10.53;;;7.00;35.30;;;;;;10442836;28;20304;-70
2021/03/21 14:26:48;;;;;;;11.07;10.07;;;7.00;35.20;;;;;;10446198;28;20307;-70
2021/03/21 14:31:50;;;;;;;11.10;10.00;;;7.10;35.30;;;;;;10437983;28;20697;-70
2021/03/21 14:36:54;;;;;;;9.93;8.93;;;7.10;35.10;;;;;;10439524;28;20317;-70
2021/03/21 14:41:56;;;;;;;11.80;10.63;;;7.20;35.20;;;;;;10457336;28;20750;-70
2021/03/21 14:46:58;;;;;;;10.67;9.67;;;7.20;35.30;;;;;;10473717;28;20227;-70
2021/03/21 14:52:02;;;;;;;10.67;9.67;;;7.20;35.20;;;;;;10466279;28;20311;-70
2021/03/21 14:57:04;;;;;;;11.67;9.80;;;7.30;35.40;;;;;;10464501;28;20226;-70
2021/03/21 15:02:07;;;;;;;16.53;14.90;;;7.30;35.30;;;;;;10465960;28;20227;-70
2021/03/21 15:07:11;;;;;;;10.97;9.73;;;7.30;35.30;;;;;;10457311;28;20229;-70
2021/03/21 15:12:13;;;;;;;11.10;10.00;;;7.20;35.40;;;;;;10461211;28;20233;-70
2021/03/21 15:17:15;;;;;;;10.47;9.30;;;7.30;35.50;;;;;;10448473;28;20705;-70
2021/03/21 15:22:19;;;;;;;10.20;9.17;;;7.20;35.60;;;;;;10445305;28;20580;-70
2021/03/21 15:27:21;;;;;;;9.83;8.93;;;7.20;35.80;;;;;;10450161;28;20243;-70
2021/03/21 15:32:23;;;;;;;10.07;9.07;;;7.20;35.80;;;;;;10450680;28;20228;-71
2021/03/21 15:37:26;;;;;;;11.47;10.17;;;7.30;35.80;;;;;;10448951;28;20594;-70
2021/03/21 15:42:28;;;;;;;11.20;9.40;;;7.30;35.80;;;;;;10449225;28;20235;-70
2021/03/21 15:47:30;;;;;;;10.50;9.40;;;7.30;35.60;;;;;;10448518;28;20235;-70
2021/03/21 15:52:34;;;;;;;12.27;10.77;;;7.30;35.80;;;;;;10449513;28;20304;-70
2021/03/21 15:57:36;;;;;;;10.00;8.47;;;7.30;36.00;;;;;;10446939;28;20355;-70
2021/03/21 16:02:38;;;;;;;9.10;8.20;;;7.30;35.90;;;;;;10449948;28;20656;-70
2021/03/21 16:07:42;;;;;;;10.17;9.17;;;7.40;35.80;;;;;;10447323;28;20243;-70
2021/03/21 16:12:45;;;;;;;8.97;8.07;;;7.30;36.10;;;;;;10446392;28;20225;-69
2021/03/21 16:17:48;;;;;;;8.93;8.03;;;7.30;35.90;;;;;;10449340;28;20252;-71
2021/03/21 16:22:52;;;;;;;8.77;7.43;;;7.30;35.90;;;;;;10443729;28;20708;-69
2021/03/21 16:27:56;;;;;;;8.73;7.83;;;7.30;36.10;;;;;;10447378;28;20229;-70
2021/03/21 16:32:59;;;;;;;12.13;8.03;;;7.30;36.20;;;;;;10442039;28;20239;-69
2021/03/21 16:38:04;;;;;;;10.07;8.53;;;7.30;36.70;;;;;;10449149;28;20225;-70
2021/03/21 16:43:09;;;;;;;11.30;10.10;;;7.30;36.50;;;;;;10450853;28;20243;-70
2021/03/21 16:48:12;;;;;;;9.00;8.10;;;7.30;36.50;;;;;;10449416;28;20233;-70
2021/03/21 16:53:17;;;;;;;7.73;7.03;;;7.30;36.40;;;;;;10431899;28;20260;-70
2021/03/21 16:58:19;;;;;;;8.23;7.43;;;7.30;36.50;;;;;;10438271;28;20256;-70
2021/03/21 17:03:21;;;;;;;7.83;7.03;;;7.30;36.40;;;;;;10440263;28;20286;-70
2021/03/21 17:08:25;;;;;;;7.90;7.20;;;7.30;36.50;;;;;;10437175;28;20253;-70
2021/03/21 17:13:27;;;;;;;7.87;6.83;;;7.30;36.60;;;;;;10436591;28;20229;-70
2021/03/21 17:18:29;;;;;;;10.00;6.77;;;7.30;36.50;;;;;;10440516;28;20243;-70
2021/03/21 17:23:33;;;;;;;7.53;6.80;;;7.40;36.50;;;;;;10436652;28;20591;-70
2021/03/21 17:28:36;;;;;;;8.23;7.33;;;7.40;36.50;;;;;;10439248;28;20232;-69
2021/03/21 17:33:39;;;;;;;7.57;6.87;;;7.40;36.50;;;;;;10438623;28;20725;-70
2021/03/21 17:38:42;;;;;;;7.83;7.13;;;7.40;36.50;;;;;;10435071;28;20225;-70
2021/03/21 17:43:45;;;;;;;7.67;6.97;;;7.40;36.60;;;;;;10438875;28;20251;-70
2021/03/21 17:48:47;;;;;;;7.97;7.27;;;7.40;36.50;;;;;;10436549;28;20308;-70
2021/03/21 17:53:51;;;;;;;9.47;7.93;;;7.40;36.60;;;;;;10439715;28;20231;-69
2021/03/21 17:58:55;;;;;;;9.30;7.47;;;7.40;36.70;;;;;;10429784;28;20230;-69
2021/03/21 18:03:58;;;;;;;8.57;7.77;;;7.40;36.70;;;;;;10441317;28;20218;-69
2021/03/21 18:09:02;;;;;;;8.10;7.30;;;7.40;36.70;;;;;;10436963;28;20229;-69
2021/03/21 18:14:04;;;;;;;7.53;6.83;;;7.40;36.80;;;;;;10434492;28;20732;-69
2021/03/21 18:19:06;;;;;;;7.47;6.87;;;7.40;36.90;;;;;;10439189;28;20231;-69
2021/03/21 18:24:10;;;;;;;7.63;6.93;;;7.40;36.90;;;;;;10445296;28;20227;-69
2021/03/21 18:29:15;;;;;;;7.63;6.83;;;7.40;37.00;;;;;;10445583;28;20268;-69
2021/03/21 18:34:17;;;;;;;7.40;6.80;;;7.50;37.00;;;;;;10440448;28;20663;-69
2021/03/21 18:39:21;;;;;;;7.50;6.90;;;7.50;36.90;;;;;;10443546;28;20708;-69
2021/03/21 18:44:23;;;;;;;7.07;6.30;;;7.50;37.20;;;;;;10445982;28;20228;-69
2021/03/21 18:49:25;;;;;;;7.50;6.80;;;7.50;36.90;;;;;;10442760;28;20689;-69
2021/03/21 18:54:31;;;;;;;7.60;6.93;;;7.60;36.90;;;;;;10444409;28;20235;-69
2021/03/21 18:59:33;;;;;;;7.83;7.03;;;7.60;37.20;;;;;;10444753;28;20233;-69
2021/03/21 19:04:35;;;;;;;7.53;6.83;;;7.60;36.90;;;;;;10440851;28;20248;-69
2021/03/21 19:09:39;;;;;;;7.70;7.00;;;7.70;37.00;;;;;;10444484;28;20237;-69
2021/03/21 19:14:43;;;;;;;7.63;6.93;;;7.70;37.20;;;;;;10441966;28;20322;-69
2021/03/21 19:19:45;;;;;;;7.30;6.60;;;7.70;37.20;;;;;;10440182;28;20592;-70
2021/03/21 19:24:49;;;;;;;8.30;7.60;;;7.70;37.20;;;;;;10444297;28;20235;-70
2021/03/21 19:29:51;;;;;;;7.27;6.67;;;7.70;37.30;;;;;;10439426;28;20237;-70
2021/03/21 19:34:53;;;;;;;8.83;6.93;;;7.70;37.20;;;;;;10442927;28;20225;-70
2021/03/21 19:39:57;;;;;;;6.97;6.30;;;7.70;37.20;;;;;;10441727;28;20231;-70
2021/03/21 19:44:59;;;;;;;7.27;6.57;;;7.70;37.20;;;;;;10437976;28;20225;-70
2021/03/21 19:50:01;;;;;;;7.87;6.70;;;7.70;37.30;;;;;;10440061;28;20247;-70
2021/03/21 19:55:06;;;;;;;6.30;5.80;;;7.70;37.30;;;;;;10442066;28;20253;-70
2021/03/21 20:00:10;;;;;;;8.57;6.80;;;7.70;37.50;;;;;;10442069;28;20224;-70
2021/03/21 20:05:13;;;;;;;7.40;6.70;;;7.70;37.50;;;;;;10442592;28;20225;-70
2021/03/21 20:10:21;;;;;;;8.10;6.50;;;7.70;37.40;;;;;;10437154;28;20242;-73
2021/03/21 20:15:26;;;;;;;7.40;6.70;;;7.70;37.90;;;;;;10437754;28;20256;-70
2021/03/21 20:20:29;;;;;;;7.20;6.50;;;7.70;37.80;;;;;;10425255;28;20220;-71
2021/03/21 20:25:34;;;;;;;7.40;6.70;;;7.80;37.60;;;;;;10441038;28;20599;-71
2021/03/21 20:30:37;;;;;;;6.80;6.20;;;7.80;37.60;;;;;;10440174;28;20221;-71
2021/03/21 20:35:39;;;;;;;7.00;6.40;;;7.90;37.40;;;;;;10434531;28;20221;-71
2021/03/21 20:40:42;;;;;;;8.03;7.27;;;7.90;37.40;;;;;;10433841;28;20228;-70
2021/03/21 20:45:45;;;;;;;8.27;7.47;;;7.90;37.40;;;;;;10435839;28;20781;-69
2021/03/21 20:50:48;;;;;;;8.03;7.30;;;7.80;37.30;;;;;;10432526;28;20229;-70
2021/03/21 20:55:53;;;;;;;8.47;7.40;;;7.80;37.30;;;;;;10435480;28;20295;-70
2021/03/21 21:00:56;;;;;;;8.07;7.27;;;7.80;37.60;;;;;;10432634;28;20229;-70
2021/03/21 21:05:59;;;;;;;8.20;7.40;;;7.80;37.40;;;;;;10435772;28;20240;-70
2021/03/21 21:11:03;;;;;;;8.00;7.20;;;7.70;37.40;;;;;;10433235;28;20258;-70
2021/03/21 21:16:06;;;;;;;8.90;8.10;;;7.70;37.60;;;;;;10435668;28;20236;-70
2021/03/21 21:21:08;;;;;;;9.37;8.43;;;7.60;37.50;;;;;;10429806;28;20229;-70
2021/03/21 21:26:13;;;;;;;8.90;8.00;;;7.60;37.60;;;;;;10434398;28;20237;-71
2021/03/21 21:31:17;;;;;;;8.83;7.93;;;7.60;37.80;;;;;;10432158;28;20236;-70
2021/03/21 21:36:20;;;;;;;8.53;7.40;;;7.50;37.90;;;;;;10434564;28;20239;-71
2021/03/21 21:41:23;;;;;;;9.63;7.70;;;7.50;37.90;;;;;;10430730;28;20240;-70
2021/03/21 21:46:26;;;;;;;8.73;7.80;;;7.50;38.20;;;;;;10432650;28;20229;-70
2021/03/21 21:51:29;;;;;;;8.30;7.50;;;7.50;38.00;;;;;;10435534;28;20228;-70
2021/03/21 21:56:32;;;;;;;9.40;8.50;;;7.50;38.00;;;;;;10439071;28;20726;-71
2021/03/21 22:01:34;;;;;;;8.93;8.03;;;7.50;38.30;;;;;;10442080;28;20336;-71
2021/03/21 22:06:37;;;;;;;8.50;7.73;;;7.40;38.00;;;;;;10433106;28;20294;-70
2021/03/21 22:11:40;;;;;;;8.80;7.70;;;7.50;38.20;;;;;;10441669;28;20243;-70
2021/03/21 22:16:42;;;;;;;8.07;7.07;;;7.50;38.40;;;;;;10443871;28;20243;-70
2021/03/21 22:21:45;;;;;;;7.50;6.73;;;7.50;38.00;;;;;;10444021;28;20232;-70
2021/03/21 22:26:48;;;;;;;9.03;7.13;;;7.50;38.00;;;;;;10446588;28;20760;-69
2021/03/21 22:31:50;;;;;;;8.67;7.07;;;7.50;38.00;;;;;;10432730;28;20311;-69
2021/03/21 22:36:55;;;;;;;8.60;7.70;;;7.50;37.90;;;;;;10439923;28;20771;-69
2021/03/21 22:41:58;;;;;;;7.30;6.60;;;7.60;38.10;;;;;;10445349;28;20225;-69
2021/03/21 22:47:00;;;;;;;10.47;6.83;;;7.50;38.00;;;;;;10442819;28;20229;-69
2021/03/21 22:52:03;;;;;;;8.03;7.23;;;7.60;38.00;;;;;;10434086;28;20232;-69
2021/03/21 22:57:08;;;;;;;8.13;7.03;;;7.60;37.90;;;;;;10442961;28;20229;-69
2021/03/21 23:02:10;;;;;;;8.70;7.10;;;7.60;38.00;;;;;;10444644;28;20221;-69
2021/03/21 23:07:12;;;;;;;7.07;6.43;;;7.60;37.70;;;;;;10438376;28;20335;-69
2021/03/21 23:12:15;;;;;;;7.73;6.30;;;7.60;37.60;;;;;;10444107;28;20607;-69
2021/03/21 23:17:19;;;;;;;12.07;6.30;;;7.70;37.70;;;;;;10437867;28;20290;-69
2021/03/21 23:22:22;;;;;;;9.37;6.47;;;7.70;37.50;;;;;;10441886;28;20312;-69
2021/03/21 23:27:25;;;;;;;9.40;6.23;;;7.60;37.50;;;;;;10444816;28;20235;-69
2021/03/21 23:32:27;;;;;;;10.60;6.07;;;7.60;37.50;;;;;;10442380;28;20301;-69
2021/03/21 23:37:30;;;;;;;10.77;6.60;;;7.70;37.40;;;;;;10440650;28;20224;-69
2021/03/21 23:42:33;;;;;;;8.50;5.50;;;7.60;37.40;;;;;;10441270;28;20221;-71
2021/03/21 23:47:40;;;;;;;7.17;5.37;;;7.60;37.40;;;;;;10443285;28;20721;-69
2021/03/21 23:52:42;;;;;;;9.43;5.87;;;7.70;37.40;;;;;;10436559;28;20229;-71
2021/03/21 23:57:46;;;;;;;10.33;5.43;;;7.60;37.20;;;;;;10442720;28;20235;-70
